This is the latest recevied weather packets stored in our database for station/object KC3ELT-10. If no packets are shown the sender has not sent any weather packets the latest 10 day(s).
| Time | Temp. | Humidity | Pressure | Rain* | Wind** | Luminosity | Snow |
|---|---|---|---|---|---|---|---|
| 1777318679 | 19.44° C | 41% | 1017.3 hPa | 0 mm | 0.89 m/s, 123° | - | - |
| 1777318378 | 20° C | 39% | 1017.3 hPa | 0 mm | 1.79 m/s, 158° | - | - |
| 1777318079 | 20.56° C | 41% | 1017.4 hPa | 0 mm | 0.45 m/s, 158° | - | - |
| 1777317778 | 20.56° C | 41% | 1017.4 hPa | 0 mm | 2.24 m/s, 31° | - | - |
| 1777317479 | 20° C | 38% | 1017.4 hPa | 0 mm | 1.79 m/s, 46° | - | - |
| 1777317178 | 20° C | 40% | 1017.3 hPa | 0 mm | 0 m/s | - | - |
| 1777316878 | 20° C | 42% | 1017.3 hPa | 0 mm | 0.89 m/s, 131° | - | - |
| 1777316578 | 20° C | 39% | 1017.3 hPa | 0 mm | 0.89 m/s, 129° | - | - |
| 1777316278 | 20° C | 42% | 1017.2 hPa | 0 mm | 0.45 m/s, 106° | - | - |
| 1777315979 | 20° C | 41% | 1017.2 hPa | 0 mm | 0 m/s | - | - |
| 1777315678 | 20° C | 42% | 1017.2 hPa | 0 mm | 0 m/s | - | - |
| 1777315378 | 19.44° C | 41% | 1017.2 hPa | 0 mm | 0.89 m/s, 178° | - | - |
| 1777315078 | 19.44° C | 44% | 1017.2 hPa | 0 mm | 0.89 m/s, 70° | - | - |
| 1777314779 | 18.89° C | 47% | 1017.2 hPa | 0 mm | 0.45 m/s, 180° | - | - |
| 1777314478 | 18.89° C | 44% | 1017.6 hPa | 0 mm | 0.89 m/s, 133° | - | - |
| 1777314178 | 19.44° C | 41% | 1017.6 hPa | 0 mm | 1.79 m/s, 153° | - | - |
| 1777313878 | 18.89° C | 42% | 1017.6 hPa | 0 mm | 0.89 m/s, 161° | - | - |
| 1777313578 | 18.33° C | 46% | 1017.8 hPa | 0 mm | 0.89 m/s, 42° | - | - |
| 1777313278 | 18.33° C | 44% | 1017.8 hPa | 0 mm | 0 m/s | - | - |
| 1777312978 | 18.33° C | 42% | 1017.8 hPa | 0 mm | 2.24 m/s, 262° | - | - |
| 1777312679 | 18.89° C | 43% | 1018 hPa | 0 mm | 1.79 m/s, 155° | - | - |
| 1777312379 | 18.89° C | 43% | 1018 hPa | 0 mm | 0.45 m/s, 139° | - | - |
| 1777312078 | 18.89° C | 47% | 1018 hPa | 0 mm | 0 m/s | - | - |
| 1777311779 | 18.89° C | 47% | 1018.2 hPa | 0 mm | 0 m/s | - | - |
| 1777311478 | 18.89° C | 44% | 1018.2 hPa | 0 mm | 0.89 m/s, 203° | - | - |
* Rain latest hour (hover to see other rain measurements)
** Current wind speed in m/s (hover to see current wind gust speed)